Terminal Aerodrome Forecast
Issued by NWS Sterling, VA

Home | Current Version | Previous Version | Text Only | Print | Product List | Glossary On
Versions: 1 2 3 4 5 6 7 8 9 10 11 12 13 14 15 16 17 18 19 20 21 22
000
FTUS41 KLWX 251140
TAFBWI
TAF
KBWI 251140Z 2512/2618 12008KT 3SM BR SCT006 OVC015
     FM251400 14010KT P6SM BKN015
     FM251600 17012G20KT P6SM BKN025
     FM251900 18013G21KT 3SM -TSRA OVC020CB
     FM252000 26013G27KT 5SM -SHRA VCTS OVC045CB
     FM252200 29015G30KT P6SM OVC050
     FM260000 30018G33KT P6SM BKN250
     FM260600 29014G21KT P6SM SCT040=

USA.gov is the U.S. government's official web portal to all federal, state and local government web resources and services.